ADDS METAR Data INFO
IDs: Format: Raw Decoded Include TAF

Data at: 0548 UTC 25 Feb 2018

METAR for:KJAX (Jacksonville Intl, FL, US)
Text:KJAX 250456Z 20004KT 10SM BKN039 BKN090 21/18 A3017 RMK AO2 RAB24E35 SLP216 P0000 T02060183 402940144
Temperature: 20.6°C ( 69°F)
Dewpoint: 18.3°C ( 65°F) [RH = 87%]
Pressure (altimeter):30.17 inches Hg (1021.8 mb) [Sea level pressure: 1021.6 mb]
Winds:from the SSW (200 degrees) at 5 MPH (4 knots; 2.1 m/s)
Visibility:10 or more sm (16+ km)
Ceiling:3900 feet AGL
Clouds: broken clouds at 3900 feet AGL, broken clouds at 9000 feet AGL

METAR for:KCRG (Jacksonville/Executi, FL, US)
Text:KCRG 250453Z AUTO 21006KT 10SM SCT047 BKN060 OVC090 22/19 A3018 RMK AO2 SLP218 T02220189 402830161 $
Temperature: 22.2°C ( 72°F)
Dewpoint: 18.9°C ( 66°F) [RH = 82%]
Pressure (altimeter):30.18 inches Hg (1022.1 mb) [Sea level pressure: 1021.8 mb]
Winds:from the SSW (210 degrees) at 7 MPH (6 knots; 3.1 m/s)
Visibility:10 or more sm (16+ km)
Ceiling:6000 feet AGL
Clouds: scattered clouds at 4700 feet AGL, broken clouds at 6000 feet AGL, overcast cloud deck at 9000 feet AGL
QC Flag:automated observation with no human augmentation; SOME DATA ABOVE MAY BE INACCURATE!!!"$" is an indication the sensor requires maintenance.

METAR for:KNIP (Jacksonville (NAS), FL, US)
Text:KNIP 250453Z 20005KT 10SM FEW044 SCT055 BKN090 23/18 A3018 RMK AO2 SLP216 T02280178 402890200
Temperature: 22.8°C ( 73°F)
Dewpoint: 17.8°C ( 64°F) [RH = 73%]
Pressure (altimeter):30.18 inches Hg (1022.1 mb) [Sea level pressure: 1021.6 mb]
Winds:from the SSW (200 degrees) at 6 MPH (5 knots; 2.6 m/s)
Visibility:10 or more sm (16+ km)
Ceiling:9000 feet AGL
Clouds: few clouds at 4400 feet AGL, scattered clouds at 5500 feet AGL, broken clouds at 9000 feet AGL

METAR for:KNRB (Mayport (NS), FL, US)
Text:KNRB 250452Z AUTO 22006KT 10SM SCT047 BKN060 OVC090 22/18 A3017 RMK AO2 SLP217 T02170183 402720161 $
Temperature: 21.7°C ( 71°F)
Dewpoint: 18.3°C ( 65°F) [RH = 81%]
Pressure (altimeter):30.17 inches Hg (1021.8 mb) [Sea level pressure: 1021.7 mb]
Winds:from the SW (220 degrees) at 7 MPH (6 knots; 3.1 m/s)
Visibility:10 or more sm (16+ km)
Ceiling:6000 feet AGL
Clouds: scattered clouds at 4700 feet AGL, broken clouds at 6000 feet AGL, overcast cloud deck at 9000 feet AGL
QC Flag:automated observation with no human augmentation; SOME DATA ABOVE MAY BE INACCURATE!!!"$" is an indication the sensor requires maintenance.

METAR for:KFHB (Fernandina Beach Mun, FL, US)
Text:KFHB 250538Z AUTO 00000KT 10SM SCT044 BKN049 OVC090 21/18 A3016 RMK AO1
Temperature: 21.0°C ( 70°F)
Dewpoint: 18.0°C ( 64°F) [RH = 83%]
Pressure (altimeter):30.16 inches Hg (1021.4 mb)
Winds:calm
Visibility:10 or more sm (16+ km)
Ceiling:4900 feet AGL
Clouds: scattered clouds at 4400 feet AGL, broken clouds at 4900 feet AGL, overcast cloud deck at 9000 feet AGL
QC Flag:automated observation with no human augmentation

METAR for:KVQQ (Jacksonville/Cecil A, FL, US)
Text:KVQQ 250535Z AUTO 00000KT 10SM OVC090 19/19 A3016 RMK AO2
Temperature: 19.0°C ( 66°F)
Dewpoint: 19.0°C ( 66°F) [RH = 100%]
Pressure (altimeter):30.16 inches Hg (1021.4 mb)
Winds:calm
Visibility:10 or more sm (16+ km)
Ceiling:9000 feet AGL
Clouds: overcast cloud deck at 9000 feet AGL
QC Flag:automated observation with no human augmentation